sensor_id;sensor_type;location;lat;lon;timestamp;pressure;altitude;pressure_sealevel;temperature;humidity
9676;BME280;4876;42.656;23.292;2023-04-06T00:00:40;94076.19;;;-0.15;72.34
9676;BME280;4876;42.656;23.292;2023-04-06T00:03:07;94063.31;;;-0.10;72.65
9676;BME280;4876;42.656;23.292;2023-04-06T00:05:35;94066.94;;;-0.11;71.86
9676;BME280;4876;42.656;23.292;2023-04-06T00:08:02;94054.00;;;-0.11;72.19
9676;BME280;4876;42.656;23.292;2023-04-06T00:10:29;94047.50;;;-0.13;71.93
9676;BME280;4876;42.656;23.292;2023-04-06T00:12:58;94045.78;;;-0.03;72.54
9676;BME280;4876;42.656;23.292;2023-04-06T00:15:25;94047.88;;;0.01;71.70
9676;BME280;4876;42.656;23.292;2023-04-06T00:17:52;94043.72;;;-0.01;71.68
9676;BME280;4876;42.656;23.292;2023-04-06T00:20:19;94033.78;;;-0.19;71.65
9676;BME280;4876;42.656;23.292;2023-04-06T00:22:47;94036.44;;;-0.09;71.48
9676;BME280;4876;42.656;23.292;2023-04-06T00:25:14;94035.41;;;-0.08;71.64
9676;BME280;4876;42.656;23.292;2023-04-06T00:27:42;94034.72;;;0.12;71.30
9676;BME280;4876;42.656;23.292;2023-04-06T00:30:09;94033.63;;;-0.02;71.10
9676;BME280;4876;42.656;23.292;2023-04-06T00:32:36;94029.19;;;-0.07;71.26
9676;BME280;4876;42.656;23.292;2023-04-06T00:35:04;94023.50;;;-0.09;71.58
9676;BME280;4876;42.656;23.292;2023-04-06T00:37:31;94021.44;;;-0.07;70.97
9676;BME280;4876;42.656;23.292;2023-04-06T00:40:00;94034.94;;;0.06;71.58
9676;BME280;4876;42.656;23.292;2023-04-06T00:42:27;94027.69;;;-0.03;71.19
9676;BME280;4876;42.656;23.292;2023-04-06T00:44:55;94036.13;;;-0.17;72.27
9676;BME280;4876;42.656;23.292;2023-04-06T00:47:23;94024.50;;;-0.15;71.99
9676;BME280;4876;42.656;23.292;2023-04-06T00:49:51;94025.84;;;-0.07;72.41
9676;BME280;4876;42.656;23.292;2023-04-06T00:52:19;94021.97;;;-0.10;72.41
9676;BME280;4876;42.656;23.292;2023-04-06T00:54:46;94017.31;;;-0.08;72.26
9676;BME280;4876;42.656;23.292;2023-04-06T00:57:14;94021.44;;;-0.07;72.45
9676;BME280;4876;42.656;23.292;2023-04-06T00:59:42;94020.22;;;0.06;72.30
9676;BME280;4876;42.656;23.292;2023-04-06T01:02:09;94022.50;;;-0.03;72.02
9676;BME280;4876;42.656;23.292;2023-04-06T01:04:36;94021.00;;;0.02;72.21
9676;BME280;4876;42.656;23.292;2023-04-06T01:07:03;94023.53;;;-0.04;72.72
9676;BME280;4876;42.656;23.292;2023-04-06T01:09:30;94027.19;;;0.01;72.05
9676;BME280;4876;42.656;23.292;2023-04-06T01:11:57;93988.78;;;-0.28;72.29
9676;BME280;4876;42.656;23.292;2023-04-06T01:14:26;94019.22;;;0.07;72.83
9676;BME280;4876;42.656;23.292;2023-04-06T01:16:53;94009.34;;;-0.01;72.60
9676;BME280;4876;42.656;23.292;2023-04-06T01:19:21;94011.91;;;-0.01;72.74
9676;BME280;4876;42.656;23.292;2023-04-06T01:21:49;94007.81;;;0.03;72.73
9676;BME280;4876;42.656;23.292;2023-04-06T01:24:20;94006.53;;;0.11;72.58
9676;BME280;4876;42.656;23.292;2023-04-06T01:26:47;94016.34;;;0.04;72.95
9676;BME280;4876;42.656;23.292;2023-04-06T01:29:14;94003.94;;;0.06;72.00
9676;BME280;4876;42.656;23.292;2023-04-06T01:31:40;94005.78;;;0.10;72.52
9676;BME280;4876;42.656;23.292;2023-04-06T01:34:07;94010.41;;;0.03;72.83
9676;BME280;4876;42.656;23.292;2023-04-06T01:36:34;94007.03;;;0.03;72.57
9676;BME280;4876;42.656;23.292;2023-04-06T01:39:01;94010.41;;;0.03;72.63
9676;BME280;4876;42.656;23.292;2023-04-06T01:41:29;94004.19;;;0.04;73.10
9676;BME280;4876;42.656;23.292;2023-04-06T01:43:56;94005.00;;;0.10;73.24
9676;BME280;4876;42.656;23.292;2023-04-06T01:46:23;94006.06;;;0.14;72.58
9676;BME280;4876;42.656;23.292;2023-04-06T01:48:50;94004.50;;;0.18;72.49
9676;BME280;4876;42.656;23.292;2023-04-06T01:51:17;94002.19;;;0.16;72.53
9676;BME280;4876;42.656;23.292;2023-04-06T01:53:44;93998.03;;;0.15;72.08
9676;BME280;4876;42.656;23.292;2023-04-06T01:56:14;93997.06;;;0.32;72.52
9676;BME280;4876;42.656;23.292;2023-04-06T01:58:43;93990.56;;;0.24;72.55
9676;BME280;4876;42.656;23.292;2023-04-06T02:01:10;93992.09;;;0.15;72.21
9676;BME280;4876;42.656;23.292;2023-04-06T02:03:37;93990.81;;;0.22;72.47
9676;BME280;4876;42.656;23.292;2023-04-06T02:06:04;93992.34;;;0.18;71.95
9676;BME280;4876;42.656;23.292;2023-04-06T02:08:31;93990.81;;;0.17;72.32
9676;BME280;4876;42.656;23.292;2023-04-06T02:10:58;93996.31;;;0.31;72.39
9676;BME280;4876;42.656;23.292;2023-04-06T02:13:25;93997.84;;;0.37;72.14
9676;BME280;4876;42.656;23.292;2023-04-06T02:15:53;93997.84;;;0.37;71.57
9676;BME280;4876;42.656;23.292;2023-04-06T02:18:20;93975.63;;;0.31;71.92
9676;BME280;4876;42.656;23.292;2023-04-06T02:20:47;93992.94;;;0.36;71.94
9676;BME280;4876;42.656;23.292;2023-04-06T02:23:14;93994.75;;;0.35;72.00
9676;BME280;4876;42.656;23.292;2023-04-06T02:25:41;93992.69;;;0.32;72.59
9676;BME280;4876;42.656;23.292;2023-04-06T02:28:08;93987.50;;;0.32;71.93
9676;BME280;4876;42.656;23.292;2023-04-06T02:30:35;93990.91;;;0.48;71.91
9676;BME280;4876;42.656;23.292;2023-04-06T02:33:04;93986.75;;;0.42;71.92
9676;BME280;4876;42.656;23.292;2023-04-06T02:35:31;93990.91;;;0.53;71.41
9676;BME280;4876;42.656;23.292;2023-04-06T02:37:58;93988.78;;;0.30;71.39
9676;BME280;4876;42.656;23.292;2023-04-06T02:40:25;93994.78;;;0.40;71.94
9676;BME280;4876;42.656;23.292;2023-04-06T02:42:51;93993.19;;;0.34;71.68
9676;BME280;4876;42.656;23.292;2023-04-06T02:45:18;93983.38;;;0.31;71.74
9676;BME280;4876;42.656;23.292;2023-04-06T02:47:45;93987.50;;;0.32;71.64
9676;BME280;4876;42.656;23.292;2023-04-06T02:50:14;93984.91;;;0.27;72.02
9676;BME280;4876;42.656;23.292;2023-04-06T02:52:42;93973.75;;;0.16;72.65
9676;BME280;4876;42.656;23.292;2023-04-06T02:55:09;93987.00;;;0.35;71.87
9676;BME280;4876;42.656;23.292;2023-04-06T02:57:36;93994.50;;;0.37;72.24
9676;BME280;4876;42.656;23.292;2023-04-06T03:00:04;93987.50;;;0.32;71.95
9676;BME280;4876;42.656;23.292;2023-04-06T03:02:31;93988.78;;;0.30;72.45
9676;BME280;4876;42.656;23.292;2023-04-06T03:04:57;93984.38;;;0.20;72.63
9676;BME280;4876;42.656;23.292;2023-04-06T03:07:26;93990.09;;;0.32;73.13
9676;BME280;4876;42.656;23.292;2023-04-06T03:09:55;93989.56;;;0.30;72.63
9676;BME280;4876;42.656;23.292;2023-04-06T03:12:22;93992.41;;;0.29;72.72
9676;BME280;4876;42.656;23.292;2023-04-06T03:14:49;93985.44;;;0.34;72.38
9676;BME280;4876;42.656;23.292;2023-04-06T03:17:16;93987.81;;;0.46;72.10
9676;BME280;4876;42.656;23.292;2023-04-06T03:19:43;93993.72;;;0.36;72.42
9676;BME280;4876;42.656;23.292;2023-04-06T03:22:10;93986.22;;;0.35;71.96
9676;BME280;4876;42.656;23.292;2023-04-06T03:24:38;93993.47;;;0.33;72.50
9676;BME280;4876;42.656;23.292;2023-04-06T03:27:05;93994.72;;;0.30;72.37
9676;BME280;4876;42.656;23.292;2023-04-06T03:29:32;93980.81;;;0.41;72.00
9676;BME280;4876;42.656;23.292;2023-04-06T03:31:59;93982.34;;;0.32;72.24
9676;BME280;4876;42.656;23.292;2023-04-06T03:34:26;93982.84;;;0.29;72.40
9676;BME280;4876;42.656;23.292;2023-04-06T03:36:53;93986.41;;;0.18;72.43
9676;BME280;4876;42.656;23.292;2023-04-06T03:39:20;93980.22;;;0.14;72.86
9676;BME280;4876;42.656;23.292;2023-04-06T03:41:48;93988.53;;;0.31;72.11
9676;BME280;4876;42.656;23.292;2023-04-06T03:44:15;93992.16;;;0.35;72.79
9676;BME280;4876;42.656;23.292;2023-04-06T03:46:43;93993.78;;;0.51;72.61
9676;BME280;4876;42.656;23.292;2023-04-06T03:49:10;93987.28;;;0.49;71.89
9676;BME280;4876;42.656;23.292;2023-04-06T03:51:37;93991.19;;;0.51;71.83
9676;BME280;4876;42.656;23.292;2023-04-06T03:54:04;93971.00;;;0.48;71.17
9676;BME280;4876;42.656;23.292;2023-04-06T03:56:31;93988.06;;;0.54;70.98
9676;BME280;4876;42.656;23.292;2023-04-06T03:58:59;93978.25;;;0.51;70.97
9676;BME280;4876;42.656;23.292;2023-04-06T04:01:27;93990.41;;;0.51;70.39
9676;BME280;4876;42.656;23.292;2023-04-06T04:03:54;93990.09;;;0.37;71.03
9676;BME280;4876;42.656;23.292;2023-04-06T04:06:21;93992.75;;;0.58;71.35
9676;BME280;4876;42.656;23.292;2023-04-06T04:08:48;93988.34;;;0.58;70.70
9676;BME280;4876;42.656;23.292;2023-04-06T04:11:15;93981.63;;;0.57;70.42
9676;BME280;4876;42.656;23.292;2023-04-06T04:13:42;93981.63;;;0.72;70.49
9676;BME280;4876;42.656;23.292;2023-04-06T04:16:10;93983.69;;;0.60;70.09
9676;BME280;4876;42.656;23.292;2023-04-06T04:18:37;93986.00;;;0.51;70.29
9676;BME280;4876;42.656;23.292;2023-04-06T04:21:04;93986.53;;;0.59;70.42
9676;BME280;4876;42.656;23.292;2023-04-06T04:23:31;93986.00;;;0.62;70.57
9676;BME280;4876;42.656;23.292;2023-04-06T04:25:58;93991.75;;;0.69;70.03
9676;BME280;4876;42.656;23.292;2023-04-06T04:28:25;93989.66;;;0.71;69.97
9676;BME280;4876;42.656;23.292;2023-04-06T04:30:51;93994.31;;;0.79;70.24
9676;BME280;4876;42.656;23.292;2023-04-06T04:33:20;93986.09;;;0.87;70.09
9676;BME280;4876;42.656;23.292;2023-04-06T04:35:47;93989.19;;;0.94;69.67
9676;BME280;4876;42.656;23.292;2023-04-06T04:38:13;93989.69;;;0.81;69.69
9676;BME280;4876;42.656;23.292;2023-04-06T04:40:40;93996.91;;;0.79;70.39
9676;BME280;4876;42.656;23.292;2023-04-06T04:43:07;93993.84;;;0.82;70.54
9676;BME280;4876;42.656;23.292;2023-04-06T04:45:34;94001.59;;;0.77;70.16
9676;BME280;4876;42.656;23.292;2023-04-06T04:48:01;93995.91;;;0.95;69.95
9676;BME280;4876;42.656;23.292;2023-04-06T04:50:31;93990.22;;;1.08;69.16
9676;BME280;4876;42.656;23.292;2023-04-06T04:52:58;93972.59;;;1.41;74.30
9676;BME280;4876;42.656;23.292;2023-04-06T04:55:25;93970.53;;;1.18;69.53
9676;BME280;4876;42.656;23.292;2023-04-06T04:57:52;93983.50;;;1.13;69.03
9676;BME280;4876;42.656;23.292;2023-04-06T05:00:19;93982.19;;;0.90;69.96
9676;BME280;4876;42.656;23.292;2023-04-06T05:02:46;93982.97;;;1.00;69.31
9676;BME280;4876;42.656;23.292;2023-04-06T05:05:13;93982.97;;;0.95;69.51
9676;BME280;4876;42.656;23.292;2023-04-06T05:07:41;93985.03;;;1.03;69.72
9676;BME280;4876;42.656;23.292;2023-04-06T05:10:09;93985.03;;;1.03;69.23
9676;BME280;4876;42.656;23.292;2023-04-06T05:12:37;93975.47;;;1.09;69.07
9676;BME280;4876;42.656;23.292;2023-04-06T05:15:04;93987.09;;;1.17;68.83
9676;BME280;4876;42.656;23.292;2023-04-06T05:17:31;93979.59;;;1.10;69.30
9676;BME280;4876;42.656;23.292;2023-04-06T05:19:59;93977.28;;;1.19;69.11
9676;BME280;4876;42.656;23.292;2023-04-06T05:22:26;93981.41;;;1.30;68.81
9676;BME280;4876;42.656;23.292;2023-04-06T05:24:54;93986.06;;;1.23;69.18
9676;BME280;4876;42.656;23.292;2023-04-06T05:27:21;93984.78;;;1.35;68.70
9676;BME280;4876;42.656;23.292;2023-04-06T05:29:48;93976.22;;;1.50;68.07
9676;BME280;4876;42.656;23.292;2023-04-06T05:32:15;93982.44;;;1.24;68.76
9676;BME280;4876;42.656;23.292;2023-04-06T05:34:42;93973.13;;;1.43;68.91
9676;BME280;4876;42.656;23.292;2023-04-06T05:37:09;93980.38;;;1.56;68.09
9676;BME280;4876;42.656;23.292;2023-04-06T05:39:36;93974.41;;;1.51;67.79
9676;BME280;4876;42.656;23.292;2023-04-06T05:42:05;93957.06;;;1.36;68.70
9676;BME280;4876;42.656;23.292;2023-04-06T05:44:32;93974.66;;;1.54;68.58
9676;BME280;4876;42.656;23.292;2023-04-06T05:46:59;93949.56;;;1.40;68.67
9676;BME280;4876;42.656;23.292;2023-04-06T05:49:26;93972.53;;;1.77;68.12
9676;BME280;4876;42.656;23.292;2023-04-06T05:51:53;93975.63;;;1.79;68.11
9676;BME280;4876;42.656;23.292;2023-04-06T05:54:19;93976.22;;;1.50;68.37
9676;BME280;4876;42.656;23.292;2023-04-06T05:56:46;93950.81;;;1.42;69.11
9676;BME280;4876;42.656;23.292;2023-04-06T05:59:15;93967.13;;;1.58;69.15
9676;BME280;4876;42.656;23.292;2023-04-06T06:01:41;93972.59;;;1.46;69.15
9676;BME280;4876;42.656;23.292;2023-04-06T06:04:08;93965.88;;;1.50;69.59
9676;BME280;4876;42.656;23.292;2023-04-06T06:06:35;93970.00;;;1.41;70.12
9676;BME280;4876;42.656;23.292;2023-04-06T06:09:03;93963.78;;;1.52;69.74
9676;BME280;4876;42.656;23.292;2023-04-06T06:11:30;93957.56;;;1.48;69.91
9676;BME280;4876;42.656;23.292;2023-04-06T06:13:58;93961.47;;;1.51;70.08
9676;BME280;4876;42.656;23.292;2023-04-06T06:16:26;93970.50;;;1.58;69.90
9676;BME280;4876;42.656;23.292;2023-04-06T06:18:53;93967.84;;;1.79;69.36
9676;BME280;4876;42.656;23.292;2023-04-06T06:21:20;93969.41;;;1.85;68.98
9676;BME280;4876;42.656;23.292;2023-04-06T06:23:47;93964.69;;;1.97;68.50
9676;BME280;4876;42.656;23.292;2023-04-06T06:26:15;93961.81;;;1.99;68.15
9676;BME280;4876;42.656;23.292;2023-04-06T06:28:42;93960.81;;;1.95;68.31
9676;BME280;4876;42.656;23.292;2023-04-06T06:31:09;93968.31;;;2.01;68.59
9676;BME280;4876;42.656;23.292;2023-04-06T06:33:37;93962.88;;;2.57;67.73
9676;BME280;4876;42.656;23.292;2023-04-06T06:36:04;93952.56;;;2.42;66.84
9676;BME280;4876;42.656;23.292;2023-04-06T06:38:34;93959.72;;;2.60;66.65
9676;BME280;4876;42.656;23.292;2023-04-06T06:41:01;93951.88;;;2.76;65.15
9676;BME280;4876;42.656;23.292;2023-04-06T06:43:28;93958.63;;;2.72;65.64
9676;BME280;4876;42.656;23.292;2023-04-06T06:45:55;93962.19;;;2.86;65.13
9676;BME280;4876;42.656;23.292;2023-04-06T06:48:22;93965.72;;;3.00;65.17
9676;BME280;4876;42.656;23.292;2023-04-06T06:50:50;93965.31;;;2.83;65.16
9676;BME280;4876;42.656;23.292;2023-04-06T06:53:17;93971.56;;;2.82;64.90
9676;BME280;4876;42.656;23.292;2023-04-06T06:55:44;93974.59;;;2.94;64.21
9676;BME280;4876;42.656;23.292;2023-04-06T06:58:11;93971.22;;;3.28;64.24
9676;BME280;4876;42.656;23.292;2023-04-06T07:00:38;93972.19;;;3.37;63.75
9676;BME280;4876;42.656;23.292;2023-04-06T07:03:05;93969.28;;;3.43;63.48
9676;BME280;4876;42.656;23.292;2023-04-06T07:05:31;93974.34;;;3.30;63.51
9676;BME280;4876;42.656;23.292;2023-04-06T07:08:00;93962.97;;;3.49;64.63
9676;BME280;4876;42.656;23.292;2023-04-06T07:10:27;93965.84;;;4.01;63.58
9676;BME280;4876;42.656;23.292;2023-04-06T07:12:53;93969.41;;;4.10;61.92
9676;BME280;4876;42.656;23.292;2023-04-06T07:15:20;93951.19;;;4.10;60.65
9676;BME280;4876;42.656;23.292;2023-04-06T07:17:47;93959.63;;;3.97;60.76
9676;BME280;4876;42.656;23.292;2023-04-06T07:20:14;93964.78;;;4.26;60.43
9676;BME280;4876;42.656;23.292;2023-04-06T07:22:42;93953.69;;;4.15;60.00
9676;BME280;4876;42.656;23.292;2023-04-06T07:25:14;93888.00;;;3.86;60.13
9676;BME280;4876;42.656;23.292;2023-04-06T07:27:41;93962.88;;;4.31;59.81
9676;BME280;4876;42.656;23.292;2023-04-06T07:30:08;93963.94;;;4.30;60.68
9676;BME280;4876;42.656;23.292;2023-04-06T07:32:35;93961.81;;;4.32;60.35
9676;BME280;4876;42.656;23.292;2023-04-06T07:35:03;93960.34;;;4.02;59.89
9676;BME280;4876;42.656;23.292;2023-04-06T07:37:29;93956.81;;;3.69;61.12
9676;BME280;4876;42.656;23.292;2023-04-06T07:39:56;93959.94;;;3.66;61.19
9676;BME280;4876;42.656;23.292;2023-04-06T07:42:25;93958.59;;;3.98;61.39
9676;BME280;4876;42.656;23.292;2023-04-06T07:44:51;93955.47;;;3.96;61.26
9676;BME280;4876;42.656;23.292;2023-04-06T07:47:18;93959.13;;;3.95;60.58
9676;BME280;4876;42.656;23.292;2023-04-06T07:49:45;93955.69;;;3.51;63.00
9676;BME280;4876;42.656;23.292;2023-04-06T07:52:12;93944.28;;;3.47;63.78
9676;BME280;4876;42.656;23.292;2023-04-06T07:54:40;93960.06;;;3.56;63.60
9676;BME280;4876;42.656;23.292;2023-04-06T07:57:07;93945.59;;;3.45;64.63
9676;BME280;4876;42.656;23.292;2023-04-06T07:59:36;93959.44;;;3.64;63.53
9676;BME280;4876;42.656;23.292;2023-04-06T08:02:02;93951.84;;;3.73;62.36
9676;BME280;4876;42.656;23.292;2023-04-06T08:04:29;93957.91;;;3.63;62.86
9676;BME280;4876;42.656;23.292;2023-04-06T08:06:56;93967.75;;;3.66;63.43
9676;BME280;4876;42.656;23.292;2023-04-06T08:09:23;93955.91;;;3.55;65.60
9676;BME280;4876;42.656;23.292;2023-04-06T08:11:50;93962.63;;;3.61;65.78
9676;BME280;4876;42.656;23.292;2023-04-06T08:14:17;93960.28;;;3.84;64.40
9676;BME280;4876;42.656;23.292;2023-04-06T08:16:46;93958.47;;;4.08;64.04
9676;BME280;4876;42.656;23.292;2023-04-06T08:19:13;93962.78;;;3.94;62.77
9676;BME280;4876;42.656;23.292;2023-04-06T08:21:42;93959.44;;;3.93;61.25
9676;BME280;4876;42.656;23.292;2023-04-06T08:24:09;93960.69;;;3.96;61.36
9676;BME280;4876;42.656;23.292;2023-04-06T08:26:36;93963.97;;;4.07;61.64
9676;BME280;4876;42.656;23.292;2023-04-06T08:29:03;93971.53;;;4.03;62.58
9676;BME280;4876;42.656;23.292;2023-04-06T08:31:33;93968.78;;;4.18;61.23
9676;BME280;4876;42.656;23.292;2023-04-06T08:34:01;93967.88;;;4.28;59.93
9676;BME280;4876;42.656;23.292;2023-04-06T08:36:28;93963.78;;;4.41;59.17
9676;BME280;4876;42.656;23.292;2023-04-06T08:38:55;93951.25;;;4.48;57.96
9676;BME280;4876;42.656;23.292;2023-04-06T08:41:22;93986.13;;;4.47;58.54
9676;BME280;4876;42.656;23.292;2023-04-06T08:43:56;93978.00;;;4.29;57.86
9676;BME280;4876;42.656;23.292;2023-04-06T08:46:24;93975.66;;;4.28;58.15
9676;BME280;4876;42.656;23.292;2023-04-06T08:48:55;93974.31;;;4.36;58.30
9676;BME280;4876;42.656;23.292;2023-04-06T08:51:24;93972.00;;;4.10;58.20
9676;BME280;4876;42.656;23.292;2023-04-06T08:53:52;93973.84;;;4.28;59.03
9676;BME280;4876;42.656;23.292;2023-04-06T08:56:29;93973.84;;;4.28;58.19
9676;BME280;4876;42.656;23.292;2023-04-06T08:58:56;93964.44;;;4.32;58.10
9676;BME280;4876;42.656;23.292;2023-04-06T09:01:26;93970.75;;;4.26;58.32
9676;BME280;4876;42.656;23.292;2023-04-06T09:03:56;93964.81;;;4.45;58.02
9676;BME280;4876;42.656;23.292;2023-04-06T09:06:25;93970.50;;;3.80;59.45
9676;BME280;4876;42.656;23.292;2023-04-06T09:08:53;93965.44;;;3.65;60.11
9676;BME280;4876;42.656;23.292;2023-04-06T09:11:20;93956.19;;;3.77;60.34
9676;BME280;4876;42.656;23.292;2023-04-06T09:13:48;93963.66;;;4.08;59.79
9676;BME280;4876;42.656;23.292;2023-04-06T09:16:16;93970.38;;;4.14;60.14
9676;BME280;4876;42.656;23.292;2023-04-06T09:18:44;93960.78;;;4.33;59.28
9676;BME280;4876;42.656;23.292;2023-04-06T09:21:12;93954.47;;;4.58;59.01
9676;BME280;4876;42.656;23.292;2023-04-06T09:23:41;93965.53;;;4.69;58.94
9676;BME280;4876;42.656;23.292;2023-04-06T09:26:09;93941.16;;;4.22;59.87
9676;BME280;4876;42.656;23.292;2023-04-06T09:28:47;93957.09;;;4.35;59.21
9676;BME280;4876;42.656;23.292;2023-04-06T09:31:15;93960.81;;;4.28;58.68
9676;BME280;4876;42.656;23.292;2023-04-06T09:33:44;93967.97;;;4.42;58.63
9676;BME280;4876;42.656;23.292;2023-04-06T09:36:11;93955.78;;;4.37;57.88
9676;BME280;4876;42.656;23.292;2023-04-06T09:38:53;93960.22;;;4.37;58.47
9676;BME280;4876;42.656;23.292;2023-04-06T09:41:22;93956.00;;;4.41;58.56
9676;BME280;4876;42.656;23.292;2023-04-06T09:43:49;93963.22;;;4.86;57.35
9676;BME280;4876;42.656;23.292;2023-04-06T09:46:17;93959.88;;;5.00;57.31
9676;BME280;4876;42.656;23.292;2023-04-06T09:48:49;93962.97;;;4.83;55.42
9676;BME280;4876;42.656;23.292;2023-04-06T09:51:18;93956.16;;;4.87;56.15
9676;BME280;4876;42.656;23.292;2023-04-06T09:53:48;93955.59;;;4.90;55.11
9676;BME280;4876;42.656;23.292;2023-04-06T09:56:24;93966.66;;;5.33;55.50
9676;BME280;4876;42.656;23.292;2023-04-06T09:58:57;93955.19;;;5.34;55.01
9676;BME280;4876;42.656;23.292;2023-04-06T10:01:29;93952.38;;;5.31;54.92
9676;BME280;4876;42.656;23.292;2023-04-06T10:04:06;93964.25;;;5.04;54.88
9676;BME280;4876;42.656;23.292;2023-04-06T10:06:38;93955.44;;;5.33;55.40
9676;BME280;4876;42.656;23.292;2023-04-06T10:09:06;93951.59;;;5.30;55.21
9676;BME280;4876;42.656;23.292;2023-04-06T10:11:36;93971.34;;;5.18;55.72
9676;BME280;4876;42.656;23.292;2023-04-06T10:14:03;93951.16;;;5.09;55.41
9676;BME280;4876;42.656;23.292;2023-04-06T10:16:30;93956.22;;;5.33;54.88
9676;BME280;4876;42.656;23.292;2023-04-06T10:19:04;93954.22;;;5.44;54.97
9676;BME280;4876;42.656;23.292;2023-04-06T10:21:34;93945.88;;;5.75;54.81
9676;BME280;4876;42.656;23.292;2023-04-06T10:24:07;93946.66;;;5.89;53.75
9676;BME280;4876;42.656;23.292;2023-04-06T10:26:36;93938.22;;;5.97;53.26
9676;BME280;4876;42.656;23.292;2023-04-06T10:29:04;93927.31;;;5.76;52.51
9676;BME280;4876;42.656;23.292;2023-04-06T10:31:30;93925.09;;;5.56;54.69
9676;BME280;4876;42.656;23.292;2023-04-06T10:33:58;93928.78;;;5.82;55.13
9676;BME280;4876;42.656;23.292;2023-04-06T10:36:26;93922.78;;;5.82;53.80
9676;BME280;4876;42.656;23.292;2023-04-06T10:38:55;93913.78;;;5.47;55.40
9676;BME280;4876;42.656;23.292;2023-04-06T10:41:22;93926.06;;;5.60;54.97
9676;BME280;4876;42.656;23.292;2023-04-06T10:43:56;93926.63;;;5.71;54.93
9676;BME280;4876;42.656;23.292;2023-04-06T10:46:28;93915.34;;;5.48;54.97
9676;BME280;4876;42.656;23.292;2023-04-06T10:48:56;93936.50;;;4.95;55.89
9676;BME280;4876;42.656;23.292;2023-04-06T10:51:25;93928.22;;;4.93;57.20
9676;BME280;4876;42.656;23.292;2023-04-06T10:53:54;93927.78;;;5.04;57.57
9676;BME280;4876;42.656;23.292;2023-04-06T10:56:23;93930.81;;;4.93;56.76
9676;BME280;4876;42.656;23.292;2023-04-06T10:58:52;93942.78;;;4.56;58.76
9676;BME280;4876;42.656;23.292;2023-04-06T11:01:23;93940.97;;;4.75;57.82
9676;BME280;4876;42.656;23.292;2023-04-06T11:03:53;93919.53;;;4.41;58.67
9676;BME280;4876;42.656;23.292;2023-04-06T11:06:21;93898.44;;;4.23;58.22
9676;BME280;4876;42.656;23.292;2023-04-06T11:08:49;93885.44;;;4.61;57.99
9676;BME280;4876;42.656;23.292;2023-04-06T11:11:17;93927.94;;;4.56;56.76
9676;BME280;4876;42.656;23.292;2023-04-06T11:13:50;93907.03;;;4.62;58.11
9676;BME280;4876;42.656;23.292;2023-04-06T11:16:18;93903.34;;;4.81;57.50
9676;BME280;4876;42.656;23.292;2023-04-06T11:18:55;93913.47;;;5.02;57.07
9676;BME280;4876;42.656;23.292;2023-04-06T11:21:32;93916.13;;;4.97;56.19
9676;BME280;4876;42.656;23.292;2023-04-06T11:24:10;93901.66;;;4.91;56.37
9676;BME280;4876;42.656;23.292;2023-04-06T11:26:39;93903.59;;;4.66;56.75
9676;BME280;4876;42.656;23.292;2023-04-06T11:29:06;93905.13;;;4.67;57.17
9676;BME280;4876;42.656;23.292;2023-04-06T11:31:38;93899.56;;;4.93;56.56
9676;BME280;4876;42.656;23.292;2023-04-06T11:34:11;93897.06;;;4.50;57.41
9676;BME280;4876;42.656;23.292;2023-04-06T11:36:40;93903.94;;;4.78;56.83
9676;BME280;4876;42.656;23.292;2023-04-06T11:39:08;93905.06;;;4.72;57.43
9676;BME280;4876;42.656;23.292;2023-04-06T11:41:35;93891.81;;;4.88;55.86
9676;BME280;4876;42.656;23.292;2023-04-06T11:44:03;93890.53;;;5.04;55.72
9676;BME280;4876;42.656;23.292;2023-04-06T11:46:30;93894.84;;;5.08;56.79
9676;BME280;4876;42.656;23.292;2023-04-06T11:48:58;93884.97;;;5.24;55.23
9676;BME280;4876;42.656;23.292;2023-04-06T11:51:27;93883.22;;;5.20;54.94
9676;BME280;4876;42.656;23.292;2023-04-06T11:53:54;93892.47;;;5.12;55.15
9676;BME280;4876;42.656;23.292;2023-04-06T11:56:26;93892.31;;;5.22;54.92
9676;BME280;4876;42.656;23.292;2023-04-06T11:58:54;93880.63;;;5.33;54.82
9676;BME280;4876;42.656;23.292;2023-04-06T12:01:21;93880.56;;;5.06;55.45
9676;BME280;4876;42.656;23.292;2023-04-06T12:03:48;93896.09;;;4.97;56.27
9676;BME280;4876;42.656;23.292;2023-04-06T12:06:16;93887.47;;;4.64;56.80
9676;BME280;4876;42.656;23.292;2023-04-06T12:08:45;93885.81;;;4.87;56.67
9676;BME280;4876;42.656;23.292;2023-04-06T12:11:11;93892.09;;;4.86;56.22
9676;BME280;4876;42.656;23.292;2023-04-06T12:13:38;93892.78;;;4.92;55.68
9676;BME280;4876;42.656;23.292;2023-04-06T12:16:05;93890.53;;;5.04;55.67
9676;BME280;4876;42.656;23.292;2023-04-06T12:18:32;93888.00;;;4.99;55.44
9676;BME280;4876;42.656;23.292;2023-04-06T12:20:59;93880.91;;;4.85;56.51
9676;BME280;4876;42.656;23.292;2023-04-06T12:23:26;93888.22;;;4.65;56.80
9676;BME280;4876;42.656;23.292;2023-04-06T12:25:54;93887.63;;;4.54;58.12
9676;BME280;4876;42.656;23.292;2023-04-06T12:28:21;93857.78;;;4.27;58.14
9676;BME280;4876;42.656;23.292;2023-04-06T12:30:52;93880.50;;;4.41;58.69
9676;BME280;4876;42.656;23.292;2023-04-06T12:33:19;93864.22;;;4.35;58.46
9676;BME280;4876;42.656;23.292;2023-04-06T12:35:46;93881.69;;;4.67;57.63
9676;BME280;4876;42.656;23.292;2023-04-06T12:38:13;93870.06;;;4.59;58.06
9676;BME280;4876;42.656;23.292;2023-04-06T12:40:40;93880.06;;;4.71;57.14
9676;BME280;4876;42.656;23.292;2023-04-06T12:43:08;93873.56;;;4.88;57.34
9676;BME280;4876;42.656;23.292;2023-04-06T12:45:36;93867.53;;;5.06;55.08
9676;BME280;4876;42.656;23.292;2023-04-06T12:48:03;93865.50;;;5.03;54.42
9676;BME280;4876;42.656;23.292;2023-04-06T12:50:29;93864.34;;;5.09;53.46
9676;BME280;4876;42.656;23.292;2023-04-06T12:52:56;93864.91;;;5.38;54.21
9676;BME280;4876;42.656;23.292;2023-04-06T12:55:23;93862.16;;;5.16;53.67
9676;BME280;4876;42.656;23.292;2023-04-06T12:57:50;93863.41;;;5.19;54.56
9676;BME280;4876;42.656;23.292;2023-04-06T13:00:20;93862.69;;;5.46;53.58
9676;BME280;4876;42.656;23.292;2023-04-06T13:02:47;93863.88;;;5.53;51.97
9676;BME280;4876;42.656;23.292;2023-04-06T13:05:14;93856.00;;;5.39;52.29
9676;BME280;4876;42.656;23.292;2023-04-06T13:07:44;93848.88;;;5.31;52.87
9676;BME280;4876;42.656;23.292;2023-04-06T13:10:12;93860.53;;;5.20;53.08
9676;BME280;4876;42.656;23.292;2023-04-06T13:12:38;93848.88;;;5.31;52.28
9676;BME280;4876;42.656;23.292;2023-04-06T13:15:06;93854.84;;;5.46;52.23
9676;BME280;4876;42.656;23.292;2023-04-06T13:17:34;93847.31;;;5.58;52.01
9676;BME280;4876;42.656;23.292;2023-04-06T13:20:02;93843.84;;;5.62;52.35
9676;BME280;4876;42.656;23.292;2023-04-06T13:22:29;93852.34;;;5.68;52.21